KERI

Erie International / Tom Ridge Field Airport

Erie, Pennsylvania, USA
METAR KERI 231151Z 19009KT 10SM BKN100 07/03 A2994 RMK AO2 LTG DSNT N AND NW SLP144 T00720033 10078 20072 55005 $
Observed Flight Rules
Oct-23 @ 11:51 UTC (28 minutes ago) Visual Flight Rules
Wind Visibility Clouds
190° at 9 knots 10 miles
  • Broken at 10,000' AGL
Temperatures Readings
Current 7°C / 45°F
Dewpoint 3°C / 37°F
Humidity 76%
Altimeter 29.94" Hg
Pressure 1014.4 hPa
Elevation 222
METAR KERI 231151Z 19009KT 10SM BKN100 07/03 A2994 RMK AO2 LTG DSNT N AND NW SLP144 T00720033 10078 20072 55005 $
Observed Flight Rules
Oct-23 @ 11:51 UTC
(28 minutes ago)
VFR
Wind Visibility
190° at 9 knots 10 miles
Clouds
  • Broken at 10,000' AGL
Temperature Dewpoint
7°C / 45°F 3°C / 37°F
Humidity Altimeter Pressure
76% 29.94" Hg 1014.4 hPa